createdAt,value
2022-10-07T00:00:54.704Z,19.05
2022-10-07T00:03:57.001Z,19.05
2022-10-07T00:06:59.315Z,19.03
2022-10-07T00:10:01.720Z,19.03
2022-10-07T00:13:04.597Z,19.03
2022-10-07T00:16:13.523Z,19.02
2022-10-07T00:19:15.702Z,19.02
2022-10-07T00:22:17.855Z,19.01
2022-10-07T00:25:20.982Z,19.01
2022-10-07T00:28:25.097Z,19.01
2022-10-07T00:31:33.411Z,19.00
2022-10-07T00:34:35.706Z,19.00
2022-10-07T00:37:43.267Z,19.01
2022-10-07T00:40:45.607Z,19.01
2022-10-07T00:43:48.152Z,18.99
2022-10-07T00:47:04.259Z,19.00
2022-10-07T00:50:14.225Z,18.99
2022-10-07T00:53:16.656Z,18.99
2022-10-07T00:56:19.504Z,18.98
2022-10-07T00:59:21.987Z,18.98
2022-10-07T01:02:26.000Z,18.98
2022-10-07T01:05:28.085Z,18.97
2022-10-07T01:08:30.271Z,18.97
2022-10-07T01:12:32.371Z,18.97
2022-10-07T01:15:46.210Z,18.96
2022-10-07T01:18:57.453Z,18.96
2022-10-07T01:22:13.791Z,18.96
2022-10-07T01:25:33.760Z,18.94
2022-10-07T01:28:42.441Z,18.95
2022-10-07T01:32:14.874Z,18.94
2022-10-07T01:35:21.575Z,18.93
2022-10-07T01:38:28.836Z,18.93
2022-10-07T01:41:32.282Z,18.93
2022-10-07T01:44:35.085Z,18.93
2022-10-07T01:47:37.825Z,18.92
2022-10-07T01:50:40.002Z,18.91
2022-10-07T01:53:58.565Z,18.91
2022-10-07T01:57:27.172Z,18.91
2022-10-07T02:00:31.143Z,18.89
2022-10-07T02:04:00.864Z,18.89
2022-10-07T02:07:09.009Z,18.88
2022-10-07T02:10:27.338Z,18.89
2022-10-07T02:13:37.937Z,18.88
2022-10-07T02:16:49.667Z,18.87
2022-10-07T02:19:56.432Z,18.87
2022-10-07T02:23:02.167Z,18.86
2022-10-07T02:26:06.646Z,18.86
2022-10-07T02:29:10.681Z,18.85
2022-10-07T02:32:18.847Z,18.85
2022-10-07T02:35:55.033Z,18.86
2022-10-07T02:38:58.359Z,18.85
2022-10-07T02:42:21.842Z,18.84
2022-10-07T02:45:45.968Z,18.84
2022-10-07T02:48:58.814Z,18.82
2022-10-07T02:52:05.427Z,18.82
2022-10-07T02:55:10.482Z,18.83
2022-10-07T02:58:13.961Z,18.83
2022-10-07T03:01:20.335Z,18.83
2022-10-07T03:04:23.076Z,18.81
2022-10-07T03:07:25.767Z,18.81
2022-10-07T03:10:31.498Z,18.80
2022-10-07T03:13:35.243Z,18.79
2022-10-07T03:16:37.472Z,18.80
2022-10-07T03:19:40.372Z,18.78
2022-10-07T03:22:43.770Z,18.78
2022-10-07T03:25:51.651Z,18.79
2022-10-07T03:28:54.156Z,18.79
2022-10-07T03:31:56.231Z,18.77
2022-10-07T03:34:58.317Z,18.78
2022-10-07T03:38:01.021Z,18.79
2022-10-07T03:41:04.515Z,18.76
2022-10-07T03:44:06.569Z,18.77
2022-10-07T03:47:10.621Z,18.76
2022-10-07T03:50:13.024Z,18.73
2022-10-07T03:53:15.098Z,18.74
2022-10-07T03:56:17.129Z,18.73
2022-10-07T03:59:19.167Z,18.74
2022-10-07T04:02:23.471Z,18.73
2022-10-07T04:05:25.541Z,18.71
2022-10-07T04:08:29.108Z,18.72
2022-10-07T04:11:31.518Z,18.73
2022-10-07T04:14:35.008Z,18.72
2022-10-07T04:17:37.002Z,18.72
2022-10-07T04:20:39.294Z,18.70
2022-10-07T04:23:42.318Z,18.70
2022-10-07T04:26:44.323Z,18.70
2022-10-07T04:29:47.102Z,18.70
2022-10-07T04:32:50.593Z,18.70
2022-10-07T04:35:52.771Z,18.69
2022-10-07T04:38:54.821Z,18.69
2022-10-07T04:41:56.983Z,18.68
2022-10-07T04:44:59.030Z,18.68
2022-10-07T04:48:01.912Z,18.68
2022-10-07T04:51:06.283Z,18.69
2022-10-07T04:54:08.561Z,18.67
2022-10-07T04:57:13.444Z,18.67
2022-10-07T05:00:18.594Z,18.66
2022-10-07T05:03:22.397Z,18.66
2022-10-07T05:06:24.396Z,18.66
2022-10-07T05:09:26.449Z,18.65
2022-10-07T05:12:28.534Z,18.65
2022-10-07T05:15:30.670Z,18.66
2022-10-07T05:18:34.169Z,18.64
2022-10-07T05:21:36.383Z,18.63
2022-10-07T05:24:38.558Z,18.66
2022-10-07T05:27:40.971Z,18.67
2022-10-07T05:30:43.467Z,18.67
2022-10-07T05:33:46.137Z,18.65
2022-10-07T05:36:48.205Z,18.65
2022-10-07T05:39:50.366Z,18.66
2022-10-07T05:42:52.572Z,18.67
2022-10-07T05:46:01.014Z,18.69
2022-10-07T05:49:03.175Z,18.68
2022-10-07T05:52:05.672Z,18.68
2022-10-07T05:55:08.195Z,18.67
2022-10-07T05:58:10.178Z,18.68
2022-10-07T06:01:17.984Z,18.70
2022-10-07T06:04:20.034Z,18.68
2022-10-07T06:07:28.389Z,18.69
2022-10-07T06:10:52.740Z,18.68
2022-10-07T06:13:55.305Z,18.66
2022-10-07T06:16:57.863Z,18.66
2022-10-07T06:20:03.241Z,18.68
2022-10-07T06:23:06.917Z,18.67
2022-10-07T06:26:11.499Z,18.67
2022-10-07T06:29:13.472Z,18.64
2022-10-07T06:32:15.583Z,18.62
2022-10-07T06:35:18.087Z,18.65
2022-10-07T06:38:20.290Z,18.68
2022-10-07T06:41:23.333Z,18.69
2022-10-07T06:44:26.901Z,18.69
2022-10-07T06:47:29.060Z,18.70
2022-10-07T06:50:31.080Z,18.76
2022-10-07T06:53:33.554Z,18.82
2022-10-07T06:56:35.585Z,18.88
2022-10-07T06:59:37.686Z,18.93
2022-10-07T07:02:39.716Z,18.96
2022-10-07T07:05:45.326Z,18.98
2022-10-07T07:08:50.255Z,18.99
2022-10-07T07:11:56.427Z,18.99
2022-10-07T07:15:00.343Z,19.02
2022-10-07T07:18:03.581Z,19.03
2022-10-07T07:21:07.746Z,19.05
2022-10-07T07:24:10.063Z,19.08
2022-10-07T07:27:14.385Z,19.09
2022-10-07T07:30:16.625Z,19.11
2022-10-07T07:33:18.737Z,19.13
2022-10-07T07:36:24.012Z,19.14
2022-10-07T07:39:26.114Z,19.17
2022-10-07T07:42:28.178Z,19.17
2022-10-07T07:45:32.934Z,19.15
2022-10-07T07:48:34.932Z,19.17
2022-10-07T07:51:37.592Z,19.18
2022-10-07T07:54:41.802Z,19.20
2022-10-07T07:57:44.298Z,19.20
2022-10-07T08:00:56.767Z,19.23
2022-10-07T08:03:59.378Z,19.23
2022-10-07T08:07:01.399Z,19.26
2022-10-07T08:10:03.599Z,19.28
2022-10-07T08:13:05.779Z,19.30
2022-10-07T08:16:09.185Z,19.31
2022-10-07T08:19:15.348Z,19.29
2022-10-07T08:22:17.657Z,19.29
2022-10-07T08:25:21.319Z,19.33
2022-10-07T08:28:24.067Z,19.33
2022-10-07T08:31:27.471Z,19.35
2022-10-07T08:34:29.605Z,19.29
2022-10-07T08:37:31.756Z,19.27
2022-10-07T08:40:33.813Z,19.26
2022-10-07T08:43:40.634Z,19.23
2022-10-07T08:46:55.825Z,19.23
2022-10-07T08:50:19.464Z,19.21
2022-10-07T08:53:37.625Z,19.22
2022-10-07T08:56:39.879Z,19.20
2022-10-07T08:59:48.397Z,19.18
2022-10-07T09:03:07.297Z,19.18
2022-10-07T09:06:13.970Z,19.21
2022-10-07T09:09:33.731Z,19.23
2022-10-07T09:12:43.245Z,19.21
2022-10-07T09:15:58.924Z,19.21
2022-10-07T09:19:03.693Z,19.18
2022-10-07T09:22:29.064Z,19.20
2022-10-07T09:25:31.932Z,19.20
2022-10-07T09:28:34.293Z,19.24
2022-10-07T09:31:36.553Z,19.23
2022-10-07T09:34:38.839Z,19.22
2022-10-07T09:37:56.574Z,19.24
2022-10-07T09:41:16.905Z,19.26
2022-10-07T09:44:25.776Z,19.24
2022-10-07T09:47:36.603Z,19.25
2022-10-07T09:50:43.560Z,19.24
2022-10-07T09:53:59.317Z,19.20
2022-10-07T09:57:03.550Z,19.22
2022-10-07T10:00:26.813Z,19.23
2022-10-07T10:03:34.297Z,19.23
2022-10-07T10:06:36.450Z,19.25
2022-10-07T10:09:38.697Z,19.24
2022-10-07T10:12:51.789Z,19.24
2022-10-07T10:15:53.957Z,19.30
2022-10-07T10:19:04.685Z,19.28
2022-10-07T10:22:40.340Z,19.27
2022-10-07T10:26:10.689Z,19.25
2022-10-07T10:29:30.712Z,19.27
2022-10-07T10:33:06.314Z,19.32
2022-10-07T10:36:22.042Z,19.28
2022-10-07T10:39:43.907Z,19.29
2022-10-07T10:43:07.035Z,19.31
2022-10-07T10:46:39.165Z,19.36
2022-10-07T10:49:54.768Z,19.40
2022-10-07T10:53:12.503Z,19.40
2022-10-07T10:56:26.261Z,19.39
2022-10-07T10:59:46.458Z,19.41
2022-10-07T11:03:14.826Z,19.43
2022-10-07T11:06:19.118Z,19.48
2022-10-07T11:09:43.402Z,19.53
2022-10-07T11:12:51.035Z,19.54
2022-10-07T11:16:08.260Z,19.53
2022-10-07T11:19:22.487Z,19.53
2022-10-07T11:22:34.363Z,19.54
2022-10-07T11:25:57.506Z,19.56
2022-10-07T11:29:10.269Z,19.61
2022-10-07T11:32:36.008Z,19.61
2022-10-07T11:35:48.941Z,19.59
2022-10-07T11:38:52.937Z,19.56
2022-10-07T11:41:59.944Z,19.65
2022-10-07T11:45:10.406Z,19.71
2022-10-07T11:48:18.985Z,19.63
2022-10-07T11:51:50.441Z,19.67
2022-10-07T11:55:05.062Z,19.76
2022-10-07T11:58:23.813Z,19.88
2022-10-07T12:01:25.808Z,19.80
2022-10-07T12:04:30.972Z,19.81
2022-10-07T12:07:37.063Z,19.85
2022-10-07T12:10:39.261Z,19.83
2022-10-07T12:13:45.179Z,19.95
2022-10-07T12:16:55.066Z,20.00
2022-10-07T12:20:37.231Z,19.97
2022-10-07T12:23:41.143Z,20.18
2022-10-07T12:26:45.882Z,20.12
2022-10-07T12:29:50.864Z,20.13
2022-10-07T12:32:53.110Z,20.12
2022-10-07T12:35:55.391Z,20.19
2022-10-07T12:38:57.503Z,20.00
2022-10-07T12:42:00.980Z,19.98
2022-10-07T12:45:05.345Z,19.96
2022-10-07T12:48:14.476Z,19.91
2022-10-07T12:51:28.492Z,19.87
2022-10-07T12:54:38.416Z,19.89
2022-10-07T12:57:42.733Z,19.97
2022-10-07T13:01:23.914Z,20.00
2022-10-07T13:04:53.833Z,20.07
2022-10-07T13:08:09.131Z,20.27
2022-10-07T13:11:32.732Z,20.36
2022-10-07T13:14:56.553Z,20.37
2022-10-07T13:18:10.865Z,20.44
2022-10-07T13:21:21.945Z,20.47
2022-10-07T13:24:26.094Z,20.49
2022-10-07T13:27:31.021Z,20.46
2022-10-07T13:30:41.674Z,20.40
2022-10-07T13:33:44.393Z,20.43
2022-10-07T13:36:46.577Z,20.53
2022-10-07T13:39:48.608Z,20.50
2022-10-07T13:42:55.431Z,20.64
2022-10-07T13:45:58.710Z,20.65
2022-10-07T13:49:02.398Z,20.77
2022-10-07T13:52:13.421Z,20.76
2022-10-07T13:55:33.013Z,20.79
2022-10-07T13:58:36.672Z,20.84
2022-10-07T14:01:40.303Z,20.91
2022-10-07T14:05:05.885Z,20.88
2022-10-07T14:08:21.161Z,20.94
2022-10-07T14:11:23.306Z,21.01
2022-10-07T14:14:32.512Z,21.05
2022-10-07T14:18:08.406Z,21.14
2022-10-07T14:21:17.008Z,21.15
2022-10-07T14:24:20.615Z,21.18
2022-10-07T14:27:59.726Z,21.30
2022-10-07T14:31:26.666Z,21.30
2022-10-07T14:35:00.856Z,21.31
2022-10-07T14:38:41.860Z,21.32
2022-10-07T14:41:44.127Z,21.34
2022-10-07T14:44:46.756Z,21.35
2022-10-07T14:47:49.643Z,21.30
2022-10-07T14:50:52.495Z,21.30
2022-10-07T14:54:03.322Z,21.21
2022-10-07T14:57:05.341Z,21.15
2022-10-07T15:00:37.365Z,21.14
2022-10-07T15:03:41.544Z,21.15
2022-10-07T15:06:47.462Z,21.11
2022-10-07T15:09:52.347Z,21.06
2022-10-07T15:12:56.077Z,20.99
2022-10-07T15:15:59.060Z,20.95
2022-10-07T15:19:02.071Z,20.93
2022-10-07T15:22:04.310Z,20.93
2022-10-07T15:25:08.232Z,20.86
2022-10-07T15:28:10.374Z,20.79
2022-10-07T15:31:12.480Z,20.75
2022-10-07T15:34:15.460Z,20.73
2022-10-07T15:37:17.522Z,20.71
2022-10-07T15:40:20.114Z,20.68
2022-10-07T15:43:22.742Z,20.69
2022-10-07T15:46:24.986Z,20.70
2022-10-07T15:49:27.127Z,20.66
2022-10-07T15:52:29.188Z,20.64
2022-10-07T15:55:32.579Z,20.63
2022-10-07T15:58:34.764Z,20.63
2022-10-07T16:01:37.432Z,20.58
2022-10-07T16:04:42.720Z,20.50
2022-10-07T16:07:45.090Z,20.46
2022-10-07T16:10:47.285Z,20.47
2022-10-07T16:13:50.298Z,20.44
2022-10-07T16:16:52.449Z,20.43
2022-10-07T16:19:54.526Z,20.39
2022-10-07T16:22:56.801Z,20.37
2022-10-07T16:26:06.781Z,20.37
2022-10-07T16:29:33.290Z,20.31
2022-10-07T16:32:35.294Z,20.28
2022-10-07T16:35:37.570Z,20.25
2022-10-07T16:38:42.556Z,20.22
2022-10-07T16:41:45.687Z,20.20
2022-10-07T16:44:50.738Z,20.17
2022-10-07T16:47:54.944Z,20.19
2022-10-07T16:50:58.170Z,20.22
2022-10-07T16:54:03.850Z,20.25
2022-10-07T16:57:05.918Z,20.28
2022-10-07T17:00:08.514Z,20.26
2022-10-07T17:03:10.574Z,20.25
2022-10-07T17:06:14.748Z,20.22
2022-10-07T17:09:18.171Z,20.20
2022-10-07T17:12:20.651Z,20.20
2022-10-07T17:15:22.716Z,20.19
2022-10-07T17:18:26.639Z,20.19
2022-10-07T17:21:28.741Z,20.19
2022-10-07T17:24:31.026Z,20.19
2022-10-07T17:27:33.071Z,20.20
2022-10-07T17:30:35.111Z,20.20
2022-10-07T17:33:40.556Z,20.19
2022-10-07T17:36:43.768Z,20.17
2022-10-07T17:39:45.792Z,20.18
2022-10-07T17:42:47.792Z,20.15
2022-10-07T17:45:49.846Z,20.16
2022-10-07T17:48:56.585Z,20.17
2022-10-07T17:51:58.658Z,20.15
2022-10-07T17:55:00.753Z,20.15
2022-10-07T17:58:02.841Z,20.15
2022-10-07T18:01:11.530Z,20.14
2022-10-07T18:04:23.732Z,20.14
2022-10-07T18:07:26.821Z,20.15
2022-10-07T18:10:29.639Z,20.14
2022-10-07T18:13:51.778Z,20.12
2022-10-07T18:16:54.420Z,20.10
2022-10-07T18:19:58.756Z,20.10
2022-10-07T18:23:00.784Z,20.09
2022-10-07T18:26:08.555Z,20.07
2022-10-07T18:29:11.232Z,20.06
2022-10-07T18:32:13.291Z,20.06
2022-10-07T18:35:15.526Z,20.04
2022-10-07T18:38:17.515Z,20.03
2022-10-07T18:41:19.779Z,20.03
2022-10-07T18:44:22.329Z,20.02
2022-10-07T18:47:24.387Z,20.01
2022-10-07T18:50:30.130Z,20.01
2022-10-07T18:53:37.771Z,19.99
2022-10-07T18:56:41.280Z,19.99
2022-10-07T18:59:43.527Z,19.98
2022-10-07T19:02:46.105Z,19.97
2022-10-07T19:05:48.107Z,19.96
2022-10-07T19:08:54.163Z,19.96
2022-10-07T19:11:56.249Z,19.95
2022-10-07T19:14:58.324Z,19.95
2022-10-07T19:18:01.205Z,19.94
2022-10-07T19:21:03.519Z,19.95
2022-10-07T19:24:06.066Z,19.95
2022-10-07T19:27:08.400Z,19.92
2022-10-07T19:30:10.991Z,19.92
2022-10-07T19:33:12.995Z,19.91
2022-10-07T19:36:15.676Z,19.89
2022-10-07T19:39:20.484Z,19.89
2022-10-07T19:42:22.628Z,19.88
2022-10-07T19:45:24.727Z,19.88
2022-10-07T19:48:27.024Z,19.86
2022-10-07T19:51:30.648Z,19.88
2022-10-07T19:54:35.798Z,19.87
2022-10-07T19:57:37.801Z,19.87
2022-10-07T20:00:39.799Z,19.86
2022-10-07T20:03:42.302Z,19.86
2022-10-07T20:06:44.728Z,19.85
2022-10-07T20:09:46.779Z,19.85
2022-10-07T20:12:48.843Z,19.83
2022-10-07T20:15:51.008Z,19.83
2022-10-07T20:19:00.937Z,19.84
2022-10-07T20:22:03.646Z,19.83
2022-10-07T20:25:06.551Z,19.81
2022-10-07T20:28:08.627Z,19.82
2022-10-07T20:31:12.667Z,19.82
2022-10-07T20:34:18.799Z,19.82
2022-10-07T20:37:21.429Z,19.81
2022-10-07T20:40:42.065Z,19.80
2022-10-07T20:43:44.109Z,19.79
2022-10-07T20:46:46.248Z,19.81
2022-10-07T20:49:50.729Z,19.79
2022-10-07T20:52:52.735Z,19.79
2022-10-07T20:55:54.735Z,19.79
2022-10-07T20:58:57.016Z,19.76
2022-10-07T21:01:59.635Z,19.77
2022-10-07T21:05:01.753Z,19.77
2022-10-07T21:08:03.759Z,19.75
2022-10-07T21:11:06.115Z,19.76
2022-10-07T21:14:08.144Z,19.75
2022-10-07T21:17:11.148Z,19.75
2022-10-07T21:20:13.348Z,19.74
2022-10-07T21:23:15.384Z,19.74
2022-10-07T21:26:18.139Z,19.74
2022-10-07T21:29:20.201Z,19.73
2022-10-07T21:32:22.191Z,19.71
2022-10-07T21:35:24.233Z,19.72
2022-10-07T21:38:27.691Z,19.73
2022-10-07T21:41:31.485Z,19.71
2022-10-07T21:44:35.905Z,19.71
2022-10-07T21:47:38.305Z,19.71
2022-10-07T21:50:40.698Z,19.71
2022-10-07T21:53:42.813Z,19.70
2022-10-07T21:56:46.296Z,19.69
2022-10-07T21:59:48.493Z,19.69
2022-10-07T22:02:51.881Z,19.69
2022-10-07T22:05:53.980Z,19.69
2022-10-07T22:08:56.572Z,19.69
2022-10-07T22:11:58.673Z,19.68
2022-10-07T22:15:00.894Z,19.67
2022-10-07T22:18:04.231Z,19.68
2022-10-07T22:21:16.748Z,19.68
2022-10-07T22:24:18.924Z,19.66
2022-10-07T22:27:22.010Z,19.67
2022-10-07T22:30:24.689Z,19.67
2022-10-07T22:33:26.789Z,19.66
2022-10-07T22:36:29.460Z,19.65
2022-10-07T22:39:31.655Z,19.66
2022-10-07T22:42:35.923Z,19.65
2022-10-07T22:45:37.982Z,19.63
2022-10-07T22:48:43.039Z,19.63
2022-10-07T22:51:45.179Z,19.61
2022-10-07T22:54:47.240Z,19.62
2022-10-07T22:57:50.780Z,19.61
2022-10-07T23:00:52.862Z,19.59
2022-10-07T23:03:55.459Z,19.60
2022-10-07T23:06:58.168Z,19.60
2022-10-07T23:10:00.224Z,19.60
2022-10-07T23:13:03.396Z,19.60
2022-10-07T23:16:11.174Z,19.58
2022-10-07T23:19:13.341Z,19.58
2022-10-07T23:22:15.392Z,19.57
2022-10-07T23:25:17.427Z,19.57
2022-10-07T23:28:21.613Z,19.57
2022-10-07T23:31:27.438Z,19.56
2022-10-07T23:34:29.512Z,19.56
2022-10-07T23:37:31.583Z,19.56
2022-10-07T23:40:33.881Z,19.55
2022-10-07T23:43:36.163Z,19.55
2022-10-07T23:46:39.546Z,19.54
2022-10-07T23:49:41.742Z,19.53
2022-10-07T23:52:44.596Z,19.53
2022-10-07T23:55:48.278Z,19.53
2022-10-07T23:58:50.375Z,19.52
